Cabarete, Dominican Republic
Current Conditions -  °F | °C
As of 8:00 PM on Wednesday 22 Oct 2014 (Local Time) from MDCY Reporting Station
Few Clouds Few Clouds  
Wind Chill: 27°   Ceiling: Unl
Heat Index: 30°   Visibility: 6mi
Dew Point: 24°   Wind: 0mph
Humidity: 84%   Direction: NA
Pressure: 29.88"   Gusts: NA
Location:  19.57°N, 70.02°W
Report Text: MDCY 230000Z 00000KT 9999 FEW018 27/24 Q1012
Loading
Personal Weather Stations






























Interactive Weather Map
Tropical Storm Tracking
New forecast layout! Learn more

10-Day Weather Forecast

Advertisements
Track Severe Weather on mobile